Time;durP1;ratioP1;P1;durP2;ratioP2;P2;SDS_P1;SDS_P2;PMS_P1;PMS_P2;Temp;Humidity;BMP_temperature;BMP_pressure;BME280_temperature;BME280_humidity;BME280_pressure;Samples;Min_cycle;Max_cycle;Signal;HPM_P1;HPM_P2
2021/12/04 00:01:41;;;;;;;;;;;4.80;99.90;;;;;;4808470;29;20063;-89
2021/12/04 00:04:07;;;;;;;;;;;4.80;99.90;;;;;;4808312;29;19929;-89
2021/12/04 00:06:37;;;;;;;;;;;4.70;99.90;;;;;;4808237;29;20299;-88
2021/12/04 00:09:04;;;;;;;;;;;3.60;99.90;;;;;;4806899;29;20037;-88
2021/12/04 00:11:31;;;;;;;;;;;4.80;99.90;;;;;;4776784;30;19925;-91
2021/12/04 00:13:56;;;;;;;;;;;5.80;99.90;;;;;;4759557;30;19933;-90
2021/12/04 00:16:22;;;;;;;;;;;4.70;99.90;;;;;;4774564;29;20372;-90
2021/12/04 00:18:47;;;;;;;;;;;4.70;99.90;;;;;;4789989;30;19930;-90
2021/12/04 00:21:13;;;;;;;;;;;5.10;99.90;;;;;;4790070;29;19930;-88
2021/12/04 00:23:38;;;;;;;;;;;4.80;99.90;;;;;;4793074;29;19997;-91
2021/12/04 00:26:04;;;;;;;;;;;4.80;99.90;;;;;;4791663;29;20276;-88
2021/12/04 00:28:30;;;;;;;;;;;4.40;99.90;;;;;;4808073;29;19925;-88
2021/12/04 00:30:55;;;;;;;;;;;4.90;99.90;;;;;;4808010;29;19925;-88
2021/12/04 00:33:26;;;;;;;;;;;4.80;99.90;;;;;;4806688;29;20397;-86
2021/12/04 00:35:59;;;;;;;;;;;3.80;99.90;;;;;;4807689;29;20027;-83
2021/12/04 00:49:21;;;;;;;;;;;5.40;99.90;;;;;;4789462;30;19925;-83
2021/12/04 00:51:54;;;;;;;;;;;4.90;99.90;;;;;;4788218;29;19926;-88
2021/12/04 00:54:20;;;;;;;;;;;4.70;99.90;;;;;;4773277;30;19933;-87
2021/12/04 00:56:46;;;;;;;;;;;4.40;99.90;;;;;;4789392;30;19926;-84
2021/12/04 00:59:12;;;;;;;;;;;4.70;99.90;;;;;;4802857;29;20160;-90
2021/12/04 01:01:39;;;;;;;;;;;5.50;99.90;;;;;;4790888;29;19932;-90
2021/12/04 01:04:08;;;;;;;;;;;5.70;99.90;;;;;;4807302;29;19947;-89
2021/12/04 01:06:33;;;;;;;;;;;4.90;99.90;;;;;;4791164;29;20295;-90
2021/12/04 01:08:59;;;;;;;;;;;4.70;99.90;;;;;;4806533;29;19932;-90
2021/12/04 01:11:25;;;;;;;;;;;4.70;99.90;;;;;;4807069;29;19925;-89
2021/12/04 01:13:50;;;;;;;;;;;5.70;99.90;;;;;;4806970;29;19929;-88
2021/12/04 01:16:16;;;;;;;;;;;5.20;99.90;;;;;;4807280;29;19925;-87
2021/12/04 01:18:43;;;;;;;;;;;4.70;99.90;;;;;;4788571;29;19929;-89
2021/12/04 01:21:09;;;;;;;;;;;4.70;99.90;;;;;;4772775;30;19931;-86
2021/12/04 01:23:34;;;;;;;;;;;5.60;99.90;;;;;;4788985;30;19925;-90
2021/12/04 01:26:00;;;;;;;;;;;4.00;99.90;;;;;;4772739;30;19926;-90
2021/12/04 01:28:25;;;;;;;;;;;4.70;99.90;;;;;;4788181;29;19925;-88
2021/12/04 01:30:51;;;;;;;;;;;4.90;99.90;;;;;;4800756;29;19932;-88
2021/12/04 01:33:16;;;;;;;;;;;5.60;99.90;;;;;;4790266;29;19925;-88
2021/12/04 01:35:42;;;;;;;;;;;5.40;99.90;;;;;;4806974;29;19925;-90
2021/12/04 01:38:07;;;;;;;;;;;5.60;99.90;;;;;;4806389;29;19925;-88
2021/12/04 01:40:33;;;;;;;;;;;4.70;99.90;;;;;;4803948;29;19936;-89
2021/12/04 01:42:58;;;;;;;;;;;4.70;99.90;;;;;;4806618;29;20518;-89
2021/12/04 01:45:24;;;;;;;;;;;4.70;99.90;;;;;;4806811;29;20299;-89
2021/12/04 01:47:56;;;;;;;;;;;4.60;99.90;;;;;;4806807;29;19951;-89
2021/12/04 01:50:22;;;;;;;;;;;5.10;99.90;;;;;;4806558;29;19933;-88
2021/12/04 01:52:48;;;;;;;;;;;4.60;99.90;;;;;;4793177;29;20055;-88
2021/12/04 01:55:13;;;;;;;;;;;4.60;99.90;;;;;;4788818;30;19934;-89
2021/12/04 01:57:39;;;;;;;;;;;4.60;99.90;;;;;;4772464;30;19933;-89
2021/12/04 02:00:06;;;;;;;;;;;4.60;99.90;;;;;;4788563;30;19925;-87
2021/12/04 02:02:31;;;;;;;;;;;4.60;99.90;;;;;;4758206;30;19926;-87
2021/12/04 02:04:57;;;;;;;;;;;5.50;99.90;;;;;;4788664;29;19932;-89
2021/12/04 02:07:22;;;;;;;;;;;4.70;99.90;;;;;;4788184;30;20350;-88
2021/12/04 02:09:48;;;;;;;;;;;4.70;99.90;;;;;;4788226;30;20354;-86
2021/12/04 02:12:14;;;;;;;;;;;5.60;99.90;;;;;;4790009;29;19926;-89
2021/12/04 02:14:40;;;;;;;;;;;4.70;99.90;;;;;;4805964;29;19981;-88
2021/12/04 02:17:07;;;;;;;;;;;5.30;99.90;;;;;;4805286;29;19925;-85
2021/12/04 02:19:33;;;;;;;;;;;4.80;99.90;;;;;;4805718;29;19980;-88
2021/12/04 02:21:58;;;;;;;;;;;4.90;99.90;;;;;;4801946;29;20402;-85
2021/12/04 02:24:24;;;;;;;;;;;4.60;99.90;;;;;;4788994;29;20024;-89
2021/12/04 02:26:50;;;;;;;;;;;4.70;99.90;;;;;;4788165;30;19934;-84
2021/12/04 02:29:16;;;;;;;;;;;5.00;99.90;;;;;;4771812;30;20303;-89
2021/12/04 02:31:51;;;;;;;;;;;4.30;99.90;;;;;;4788165;30;19926;-89
2021/12/04 02:34:21;;;;;;;;;;;4.60;99.90;;;;;;4796679;29;19925;-88
2021/12/04 02:36:46;;;;;;;;;;;4.60;99.90;;;;;;4787969;30;20299;-87
2021/12/04 02:39:20;;;;;;;;;;;4.90;99.90;;;;;;4788657;29;19925;-87
2021/12/04 02:41:46;;;;;;;;;;;4.60;99.90;;;;;;4792516;29;20401;-88
2021/12/04 02:44:11;;;;;;;;;;;4.90;99.90;;;;;;4794732;29;20019;-87
2021/12/04 02:46:37;;;;;;;;;;;4.70;99.90;;;;;;4809530;29;19925;-89
2021/12/04 02:49:05;;;;;;;;;;;4.60;99.90;;;;;;4809812;29;19936;-90
2021/12/04 02:51:31;;;;;;;;;;;4.60;99.90;;;;;;4792374;29;19980;-89
2021/12/04 02:53:56;;;;;;;;;;;4.60;99.90;;;;;;4808039;29;19925;-89
2021/12/04 02:56:24;;;;;;;;;;;4.60;99.90;;;;;;4808904;29;19921;-87
2021/12/04 02:58:53;;;;;;;;;;;5.70;99.90;;;;;;4809319;29;19975;-82
2021/12/04 03:01:18;;;;;;;;;;;4.70;99.90;;;;;;4809725;29;20298;-84
2021/12/04 03:03:44;;;;;;;;;;;4.70;99.90;;;;;;4808980;29;19925;-85
2021/12/04 03:06:09;;;;;;;;;;;4.90;99.90;;;;;;4807292;29;19921;-86
2021/12/04 03:08:35;;;;;;;;;;;4.60;99.90;;;;;;4809231;29;19925;-87
2021/12/04 03:11:01;;;;;;;;;;;4.60;99.90;;;;;;4792902;29;19999;-86
2021/12/04 03:13:26;;;;;;;;;;;5.30;99.90;;;;;;4809210;29;20411;-83
2021/12/04 03:15:59;;;;;;;;;;;5.30;99.90;;;;;;4783709;29;19948;-84
2021/12/04 03:18:25;;;;;;;;;;;5.80;99.90;;;;;;4791333;30;19926;-84
2021/12/04 03:20:53;;;;;;;;;;;4.70;99.90;;;;;;4791088;30;19982;-84
2021/12/04 03:23:28;;;;;;;;;;;5.40;99.90;;;;;;4791128;29;19986;-89
2021/12/04 03:25:56;;;;;;;;;;;4.60;99.90;;;;;;4796212;29;20003;-90
2021/12/04 03:28:21;;;;;;;;;;;4.60;99.90;;;;;;4808247;29;20123;-88
2021/12/04 03:31:13;;;;;;;;;;;5.40;99.90;;;;;;4809060;29;20019;-86
2021/12/04 03:41:20;;;;;;;;;;;5.60;99.90;;;;;;4808538;29;20459;-87
2021/12/04 03:43:46;;;;;;;;;;;5.10;99.90;;;;;;4791894;29;19928;-86
2021/12/04 03:46:15;;;;;;;;;;;4.60;99.90;;;;;;4808726;29;19932;-87
2021/12/04 03:51:10;;;;;;;;;;;5.20;99.90;;;;;;4807274;29;19995;-90
2021/12/04 03:53:36;;;;;;;;;;;4.60;99.90;;;;;;4808377;29;20022;-91
2021/12/04 03:56:02;;;;;;;;;;;5.20;99.90;;;;;;4807566;29;20268;-89
2021/12/04 03:58:28;;;;;;;;;;;5.30;99.90;;;;;;4806308;29;19932;-89
2021/12/04 04:00:53;;;;;;;;;;;4.60;99.90;;;;;;4808410;29;20375;-89
2021/12/04 04:03:19;;;;;;;;;;;4.60;99.90;;;;;;4808431;29;19921;-86
2021/12/04 04:05:45;;;;;;;;;;;4.50;99.90;;;;;;4791983;29;19925;-89
2021/12/04 04:08:12;;;;;;;;;;;4.50;99.90;;;;;;4806612;29;19925;-89
2021/12/04 04:10:38;;;;;;;;;;;5.30;99.90;;;;;;4806967;29;19921;-89
2021/12/04 04:13:03;;;;;;;;;;;5.20;99.90;;;;;;4808260;29;19983;-89
2021/12/04 04:15:29;;;;;;;;;;;4.80;99.90;;;;;;4808131;29;19927;-89
2021/12/04 04:17:55;;;;;;;;;;;4.50;99.90;;;;;;4808167;29;19925;-89
2021/12/04 04:20:21;;;;;;;;;;;4.90;99.90;;;;;;4805875;29;19925;-89
2021/12/04 04:22:48;;;;;;;;;;;5.00;99.90;;;;;;4807852;29;20371;-90
2021/12/04 04:25:14;;;;;;;;;;;5.50;99.90;;;;;;4807805;29;19925;-89
2021/12/04 04:27:40;;;;;;;;;;;5.30;99.90;;;;;;4807942;29;19921;-91
2021/12/04 04:30:08;;;;;;;;;;;4.50;99.90;;;;;;4790264;29;19933;-89
2021/12/04 04:32:33;;;;;;;;;;;4.50;99.90;;;;;;4805816;29;19929;-89
2021/12/04 04:35:08;;;;;;;;;;;4.50;99.90;;;;;;4807763;29;19981;-88
2021/12/04 05:10:13;;;;;;;;;;;5.10;99.90;;;;;;4749757;30;19926;-84
2021/12/04 05:11:04;;;;;;;;;;;4.50;99.90;;;;;;4751297;30;19937;-87
2021/12/04 05:13:29;;;;;;;;;;;4.50;99.90;;;;;;4750529;29;19926;-87
2021/12/04 05:15:57;;;;;;;;;;;5.10;99.90;;;;;;4751460;30;19929;-85
2021/12/04 05:21:06;;;;;;;;;;;5.00;99.90;;;;;;4751192;30;20395;-84
2021/12/04 05:23:33;;;;;;;;;;;4.50;99.90;;;;;;4758605;30;20415;-89
2021/12/04 05:25:58;;;;;;;;;;;4.90;99.90;;;;;;4751413;30;19930;-83
2021/12/04 05:28:24;;;;;;;;;;;4.40;99.90;;;;;;4751633;30;19926;-91
2021/12/04 05:30:50;;;;;;;;;;;5.40;99.90;;;;;;4751139;30;19926;-90
2021/12/04 05:33:16;;;;;;;;;;;4.40;99.90;;;;;;4754118;29;19932;-89
2021/12/04 05:35:41;;;;;;;;;;;5.20;99.90;;;;;;4806283;29;19929;-90
2021/12/04 05:38:07;;;;;;;;;;;4.40;99.90;;;;;;4806858;29;20304;-90
2021/12/04 05:40:33;;;;;;;;;;;3.50;99.90;;;;;;4806852;29;19929;-90
2021/12/04 05:43:02;;;;;;;;;;;5.20;99.90;;;;;;4791950;29;19932;-91
2021/12/04 05:45:30;;;;;;;;;;;4.10;99.90;;;;;;4805331;29;19925;-89
2021/12/04 05:50:57;;;;;;;;;;;5.40;99.90;;;;;;4806649;29;19931;-88
2021/12/04 05:53:19;;;;;;;;;;;4.40;99.90;;;;;;4804241;29;20311;-86
2021/12/04 05:55:52;;;;;;;;;;;5.20;99.90;;;;;;4804322;29;21657;-88
2021/12/04 05:58:22;;;;;;;;;;;5.10;99.90;;;;;;4806033;29;19925;-87
2021/12/04 06:00:48;;;;;;;;;;;4.50;99.90;;;;;;4806376;29;19925;-87
2021/12/04 06:03:13;;;;;;;;;;;4.50;99.90;;;;;;4790222;29;19932;-90
2021/12/04 06:05:39;;;;;;;;;;;4.80;99.90;;;;;;4788759;29;19948;-91
2021/12/04 06:08:05;;;;;;;;;;;4.90;99.90;;;;;;4805901;29;19932;-89
2021/12/04 06:10:30;;;;;;;;;;;5.30;99.90;;;;;;4790090;29;20294;-87
2021/12/04 06:12:56;;;;;;;;;;;4.50;99.90;;;;;;4789838;29;20007;-91
2021/12/04 06:15:21;;;;;;;;;;;4.40;99.90;;;;;;4805933;29;19925;-89
2021/12/04 06:17:49;;;;;;;;;;;4.50;99.90;;;;;;4803850;29;19960;-88
2021/12/04 06:22:59;;;;;;;;;;;4.40;99.90;;;;;;4806302;29;19932;-85
2021/12/04 06:25:26;;;;;;;;;;;3.60;99.90;;;;;;4806380;29;20371;-90
2021/12/04 06:27:52;;;;;;;;;;;5.40;99.90;;;;;;4787506;29;20452;-90
2021/12/04 06:30:20;;;;;;;;;;;4.40;99.90;;;;;;4806053;29;19925;-88
2021/12/04 06:32:47;;;;;;;;;;;5.40;99.90;;;;;;4805658;29;20028;-90
2021/12/04 06:35:13;;;;;;;;;;;4.10;99.90;;;;;;4806139;29;19929;-88
2021/12/04 06:37:39;;;;;;;;;;;4.50;99.90;;;;;;4788424;29;19974;-89
2021/12/04 06:40:05;;;;;;;;;;;5.30;99.90;;;;;;4805127;29;20012;-89
2021/12/04 06:42:31;;;;;;;;;;;4.50;99.90;;;;;;4805723;29;19925;-88
2021/12/04 06:44:57;;;;;;;;;;;4.50;99.90;;;;;;4806155;29;19925;-87
2021/12/04 06:47:23;;;;;;;;;;;4.40;99.90;;;;;;4805099;29;20476;-87
2021/12/04 06:49:50;;;;;;;;;;;4.40;99.90;;;;;;4796708;29;19979;-89
2021/12/04 06:52:20;;;;;;;;;;;4.40;99.90;;;;;;4787872;30;19925;-87
2021/12/04 06:54:55;;;;;;;;;;;4.50;99.90;;;;;;4771625;30;20371;-89
2021/12/04 06:57:21;;;;;;;;;;;4.30;99.90;;;;;;4787785;30;20298;-86
2021/12/04 06:59:48;;;;;;;;;;;4.30;99.90;;;;;;4802322;29;19932;-89
2021/12/04 07:02:14;;;;;;;;;;;5.00;99.90;;;;;;4805561;29;19921;-86
2021/12/04 07:04:40;;;;;;;;;;;4.30;99.90;;;;;;4789432;29;19948;-88
2021/12/04 07:07:06;;;;;;;;;;;4.40;99.90;;;;;;4805894;29;19925;-85
2021/12/04 07:09:32;;;;;;;;;;;4.80;99.90;;;;;;4787335;29;19951;-89
2021/12/04 07:11:59;;;;;;;;;;;5.20;99.90;;;;;;4805883;29;20290;-85
2021/12/04 07:14:25;;;;;;;;;;;4.30;99.90;;;;;;4789569;29;19926;-85
2021/12/04 07:16:51;;;;;;;;;;;5.10;99.90;;;;;;4805670;29;19925;-87
2021/12/04 07:19:17;;;;;;;;;;;4.70;99.90;;;;;;4804175;29;20341;-86
2021/12/04 07:21:44;;;;;;;;;;;3.50;99.90;;;;;;4803985;29;19978;-87
2021/12/04 07:24:10;;;;;;;;;;;4.10;99.90;;;;;;4805586;29;19972;-83
2021/12/04 07:26:36;;;;;;;;;;;5.20;99.90;;;;;;4806591;29;19971;-88
2021/12/04 07:29:02;;;;;;;;;;;4.10;99.90;;;;;;4808806;29;19925;-86
2021/12/04 07:31:29;;;;;;;;;;;4.30;99.90;;;;;;4806406;29;19925;-87
2021/12/04 07:33:55;;;;;;;;;;;5.00;99.90;;;;;;4808492;29;19928;-85
2021/12/04 07:36:22;;;;;;;;;;;4.40;99.90;;;;;;4808410;29;19924;-85
2021/12/04 07:38:47;;;;;;;;;;;4.40;99.90;;;;;;4808522;29;19921;-83
2021/12/04 07:41:13;;;;;;;;;;;4.40;99.90;;;;;;4805533;29;19932;-88
2021/12/04 07:43:39;;;;;;;;;;;4.40;99.90;;;;;;4808691;29;20414;-87
2021/12/04 07:46:04;;;;;;;;;;;3.40;99.90;;;;;;4804235;29;19971;-90
2021/12/04 07:48:30;;;;;;;;;;;4.40;99.90;;;;;;4790508;30;19925;-91
2021/12/04 07:50:55;;;;;;;;;;;4.50;99.90;;;;;;4790605;30;19926;-90
2021/12/04 07:53:21;;;;;;;;;;;4.40;99.90;;;;;;4791311;29;19932;-90
2021/12/04 07:55:47;;;;;;;;;;;4.40;99.90;;;;;;4797039;29;19933;-88
2021/12/04 07:58:13;;;;;;;;;;;4.40;99.90;;;;;;4791987;29;19929;-86
2021/12/04 08:00:39;;;;;;;;;;;4.40;99.90;;;;;;4790213;30;19932;-86
2021/12/04 08:03:05;;;;;;;;;;;5.10;99.90;;;;;;4766775;29;19925;-88
2021/12/04 08:05:31;;;;;;;;;;;5.50;99.90;;;;;;4807430;29;19929;-88
2021/12/04 08:07:57;;;;;;;;;;;5.30;99.90;;;;;;4808550;29;20026;-88
2021/12/04 08:10:23;;;;;;;;;;;4.50;99.90;;;;;;4791459;29;20318;-87
2021/12/04 08:12:48;;;;;;;;;;;4.50;99.90;;;;;;4789942;29;19925;-86
2021/12/04 08:15:19;;;;;;;;;;;4.80;99.90;;;;;;4792277;29;19925;-87
2021/12/04 08:17:45;;;;;;;;;;;5.30;99.90;;;;;;4791935;29;20360;-88
2021/12/04 08:20:11;;;;;;;;;;;4.50;99.90;;;;;;4777050;29;19925;-90
2021/12/04 08:22:37;;;;;;;;;;;4.50;99.90;;;;;;4790211;29;20367;-88
2021/12/04 08:25:03;;;;;;;;;;;4.70;99.90;;;;;;4776900;29;19928;-89
2021/12/04 08:27:29;;;;;;;;;;;5.40;99.90;;;;;;4792088;29;20011;-87
2021/12/04 08:29:55;;;;;;;;;;;4.70;99.90;;;;;;4807258;29;20012;-85
2021/12/04 08:32:23;;;;;;;;;;;4.30;99.90;;;;;;4807341;29;19982;-86
2021/12/04 08:34:49;;;;;;;;;;;4.90;99.90;;;;;;4791716;30;19930;-88
2021/12/04 08:37:14;;;;;;;;;;;5.40;99.90;;;;;;4798740;29;19925;-88
2021/12/04 08:39:40;;;;;;;;;;;4.50;99.90;;;;;;4811587;29;20070;-85
2021/12/04 08:42:06;;;;;;;;;;;4.50;99.90;;;;;;4803119;29;19930;-88
2021/12/04 08:44:33;;;;;;;;;;;4.50;99.90;;;;;;4795556;29;19925;-88
2021/12/04 08:46:58;;;;;;;;;;;4.10;99.90;;;;;;4791758;29;19986;-89
2021/12/04 08:49:24;;;;;;;;;;;5.40;99.90;;;;;;4806252;29;20025;-88
2021/12/04 08:51:50;;;;;;;;;;;4.20;99.90;;;;;;4808043;29;19931;-90
2021/12/04 08:54:16;;;;;;;;;;;5.30;99.90;;;;;;4807906;29;19932;-88
2021/12/04 08:56:41;;;;;;;;;;;4.50;99.90;;;;;;4807059;29;19925;-89
2021/12/04 08:59:07;;;;;;;;;;;4.50;99.90;;;;;;4806655;29;19979;-91
2021/12/04 09:01:35;;;;;;;;;;;4.60;99.90;;;;;;4791500;29;19933;-90
2021/12/04 09:04:04;;;;;;;;;;;5.60;99.90;;;;;;4806938;29;20016;-89
2021/12/04 09:06:31;;;;;;;;;;;4.50;99.90;;;;;;4807167;29;19981;-88
2021/12/04 09:08:57;;;;;;;;;;;4.60;99.90;;;;;;4807487;29;19929;-89
2021/12/04 09:11:26;;;;;;;;;;;4.50;99.90;;;;;;4794066;29;19930;-91
2021/12/04 09:13:52;;;;;;;;;;;4.50;99.90;;;;;;4789624;30;19926;-91
2021/12/04 09:16:18;;;;;;;;;;;4.60;99.90;;;;;;4804075;29;20040;-91
2021/12/04 09:18:44;;;;;;;;;;;5.30;99.90;;;;;;4796779;29;20387;-88
2021/12/04 09:21:10;;;;;;;;;;;5.50;99.90;;;;;;4790194;29;20299;-86
2021/12/04 09:23:39;;;;;;;;;;;5.70;99.90;;;;;;4773719;30;19922;-86
2021/12/04 09:26:09;;;;;;;;;;;4.80;99.90;;;;;;4789020;30;19982;-82
2021/12/04 09:28:44;;;;;;;;;;;4.60;99.90;;;;;;4772834;30;19946;-80
2021/12/04 10:24:00;;;;;;;;;;;4.90;99.90;;;;;;4768953;30;19975;-82
2021/12/04 10:34:32;;;;;;;;;;;5.00;99.90;;;;;;4784140;29;19926;-87
2021/12/04 10:37:08;;;;;;;;;;;5.00;99.90;;;;;;4757763;30;19925;-90
2021/12/04 10:39:34;;;;;;;;;;;5.10;99.90;;;;;;4752816;30;19925;-88
2021/12/04 10:42:02;;;;;;;;;;;5.20;99.90;;;;;;4763946;30;20415;-88
2021/12/04 10:44:29;;;;;;;;;;;5.70;99.90;;;;;;4768676;30;19926;-90
2021/12/04 10:46:59;;;;;;;;;;;5.10;99.90;;;;;;4752872;30;19965;-87
2021/12/04 10:49:38;;;;;;;;;;;5.10;99.90;;;;;;4789937;29;20015;-88
2021/12/04 10:52:06;;;;;;;;;;;5.10;99.90;;;;;;4804416;29;19924;-87
2021/12/04 10:54:38;;;;;;;;;;;5.10;99.90;;;;;;4805749;29;20403;-89
2021/12/04 10:57:53;;;;;;;;;;;5.10;99.90;;;;;;4801495;29;19925;-89
2021/12/04 11:00:12;;;;;;;;;;;5.10;99.90;;;;;;4787834;29;19976;-90
2021/12/04 11:02:43;;;;;;;;;;;5.10;99.90;;;;;;4791533;29;20307;-89
2021/12/04 11:19:32;;;;;;;;;;;5.80;99.90;;;;;;4751720;30;20323;-86
2021/12/04 11:41:43;;;;;;;;;;;5.30;99.90;;;;;;4701307;30;19938;-88
2021/12/04 11:44:23;;;;;;;;;;;6.00;99.90;;;;;;4700336;30;20383;-89
2021/12/04 11:46:54;;;;;;;;;;;6.20;99.90;;;;;;4696738;30;20009;-89
2021/12/04 11:49:25;;;;;;;;;;;4.60;99.90;;;;;;4682824;30;19985;-89
2021/12/04 11:51:57;;;;;;;;;;;5.40;99.90;;;;;;4682685;30;19927;-89
2021/12/04 11:54:24;;;;;;;;;;;5.90;99.90;;;;;;4682807;30;20441;-86
2021/12/04 11:56:58;;;;;;;;;;;5.50;99.90;;;;;;4707107;30;19981;-86
2021/12/04 11:59:27;;;;;;;;;;;5.40;99.90;;;;;;4717397;30;19926;-90
2021/12/04 12:02:00;;;;;;;;;;;5.50;99.90;;;;;;4759606;29;20291;-88
2021/12/04 12:04:34;;;;;;;;;;;5.50;99.90;;;;;;4809117;29;19925;-88
2021/12/04 12:07:08;;;;;;;;;;;5.50;99.90;;;;;;4792201;29;19925;-83
2021/12/04 12:09:36;;;;;;;;;;;5.50;99.90;;;;;;4809311;29;19925;-90
2021/12/04 12:12:02;;;;;;;;;;;5.50;99.90;;;;;;4806331;29;20240;-89
2021/12/04 12:14:38;;;;;;;;;;;5.50;99.90;;;;;;4783023;30;20008;-89
2021/12/04 12:17:04;;;;;;;;;;;5.90;99.90;;;;;;4790091;30;19926;-87
2021/12/04 12:19:35;;;;;;;;;;;5.50;99.90;;;;;;4773745;30;19925;-84
2021/12/04 12:22:06;;;;;;;;;;;5.50;99.90;;;;;;4793427;29;20417;-87
2021/12/04 12:36:09;;;;;;;;;;;5.90;99.90;;;;;;4787763;29;20442;-87
2021/12/04 12:38:44;;;;;;;;;;;5.50;99.90;;;;;;4787642;29;19969;-89
2021/12/04 12:41:28;;;;;;;;;;;5.50;99.90;;;;;;4787792;29;19922;-88
2021/12/04 12:43:56;;;;;;;;;;;5.50;99.90;;;;;;4780497;30;19937;-88
2021/12/04 12:46:36;;;;;;;;;;;5.50;99.90;;;;;;4755019;30;20351;-88
2021/12/04 12:49:03;;;;;;;;;;;5.50;99.90;;;;;;4770221;29;19941;-80
2021/12/04 12:51:31;;;;;;;;;;;5.50;99.90;;;;;;4787520;29;19926;-81
2021/12/04 12:53:58;;;;;;;;;;;5.50;99.90;;;;;;4784896;29;20017;-84
2021/12/04 12:56:25;;;;;;;;;;;6.50;99.90;;;;;;4769687;30;19995;-85
2021/12/04 13:12:42;;;;;;;;;;;5.40;99.90;;;;;;4806610;29;19925;-82
2021/12/04 13:15:09;;;;;;;;;;;5.50;99.90;;;;;;4806818;29;19956;-87
2021/12/04 13:17:35;;;;;;;;;;;5.40;99.90;;;;;;4807325;29;19928;-83
2021/12/04 13:20:01;;;;;;;;;;;6.20;99.90;;;;;;4790884;29;20375;-86
2021/12/04 13:22:28;;;;;;;;;;;5.90;99.90;;;;;;4807244;29;19921;-87
2021/12/04 13:24:55;;;;;;;;;;;6.20;99.90;;;;;;4787903;29;19925;-86
2021/12/04 13:29:49;;;;;;;;;;;6.50;99.90;;;;;;4806333;29;20283;-86
2021/12/04 13:32:16;;;;;;;;;;;6.00;99.90;;;;;;4806686;29;20001;-86
2021/12/04 13:34:43;;;;;;;;;;;5.70;99.90;;;;;;4802299;29;19933;-83
2021/12/04 13:37:09;;;;;;;;;;;5.30;99.90;;;;;;4799137;29;20384;-84
2021/12/04 13:39:36;;;;;;;;;;;5.30;99.90;;;;;;4795370;29;19925;-84
2021/12/04 13:42:02;;;;;;;;;;;5.30;99.90;;;;;;4807219;29;19925;-81
2021/12/04 13:47:11;;;;;;;12.43;5.35;;;5.60;99.90;;;;;;5124796;27;1401925;-88
2021/12/04 13:49:54;;;;;;;10.25;4.93;;;5.90;99.90;;;;;;5153874;27;20129;-82
2021/12/04 13:52:21;;;;;;;12.45;6.22;;;5.90;99.90;;;;;;5159542;27;20046;-82
2021/12/04 13:54:58;;;;;;;12.77;5.82;;;6.10;99.90;;;;;;5132597;27;20050;-80
2021/12/04 13:57:24;;;;;;;12.93;5.88;;;6.10;99.90;;;;;;5151671;27;20061;-83
2021/12/04 13:59:49;;;;;;;11.00;5.63;;;5.60;99.90;;;;;;5152242;27;20046;-81
2021/12/04 14:02:25;;;;;;;13.68;5.95;;;5.60;99.90;;;;;;5172131;27;20147;-81
2021/12/04 14:05:03;;;;;;;17.17;6.70;;;5.80;99.90;;;;;;5172581;27;20074;-85
2021/12/04 14:07:29;;;;;;;11.43;6.15;;;5.50;99.90;;;;;;5172631;27;20086;-82
2021/12/04 14:09:55;;;;;;;13.32;6.32;;;5.90;99.90;;;;;;5166494;27;20096;-82
2021/12/04 14:12:21;;;;;;;14.27;6.13;;;5.40;99.90;;;;;;5134001;27;20049;-84
2021/12/04 14:14:50;;;;;;;16.73;7.70;;;5.90;99.90;;;;;;5132621;27;20389;-85
2021/12/04 14:17:18;;;;;;;17.33;6.93;;;5.40;99.90;;;;;;5132271;27;20126;-88
2021/12/04 14:19:44;;;;;;;14.13;6.72;;;5.30;99.90;;;;;;5135860;27;20051;-85
2021/12/04 14:22:13;;;;;;;14.15;7.15;;;5.70;99.90;;;;;;5147430;27;20070;-89
2021/12/04 14:24:42;;;;;;;17.73;7.45;;;5.30;99.90;;;;;;5150408;27;20121;-85
2021/12/04 14:27:10;;;;;;;14.30;7.03;;;5.30;99.90;;;;;;5151426;27;20043;-85
2021/12/04 14:29:41;;;;;;;16.33;7.35;;;6.10;99.90;;;;;;5150955;27;20047;-83
2021/12/04 14:32:08;;;;;;;16.83;7.80;;;5.70;99.90;;;;;;5151859;27;20047;-84
2021/12/04 14:34:34;;;;;;;14.15;6.32;;;5.50;99.90;;;;;;5154432;27;20050;-86
2021/12/04 14:37:12;;;;;;;12.73;6.70;;;5.40;99.90;;;;;;5171582;27;20039;-85
2021/12/04 14:39:44;;;;;;;11.20;5.93;;;5.20;99.90;;;;;;5132002;27;20038;-86
2021/12/04 14:42:15;;;;;;;11.85;5.65;;;5.50;99.90;;;;;;5150573;27;20047;-84
2021/12/04 14:44:46;;;;;;;13.65;6.65;;;5.20;99.90;;;;;;5151720;27;20031;-84
2021/12/04 14:47:12;;;;;;;12.25;6.18;;;5.20;99.90;;;;;;5149981;27;20050;-84
2021/12/04 14:49:41;;;;;;;15.68;6.32;;;5.50;99.90;;;;;;5115534;27;20038;-85
2021/12/04 14:52:07;;;;;;;16.05;6.75;;;5.20;99.90;;;;;;5150508;27;20046;-83
2021/12/04 14:54:35;;;;;;;16.58;6.85;;;5.20;99.90;;;;;;5151915;27;20035;-83
2021/12/04 14:57:11;;;;;;;17.27;7.18;;;5.30;99.90;;;;;;5143879;27;20406;-84
2021/12/04 14:59:37;;;;;;;;;;;5.20;99.90;;;;;;5137117;27;20050;-85
2021/12/04 15:02:12;;;;;;;15.85;6.32;;;5.20;99.90;;;;;;5152359;27;19919;-83
2021/12/04 15:04:39;;;;;;;;;;;5.60;99.90;;;;;;5138016;27;20042;-84
2021/12/04 15:07:05;;;;;;;16.33;7.00;;;5.30;99.90;;;;;;5131803;27;19919;-82
2021/12/04 15:09:31;;;;;;;19.10;8.23;;;5.70;99.90;;;;;;5117684;27;20107;-83
2021/12/04 15:11:59;;;;;;;15.38;6.80;;;5.20;99.90;;;;;;5118207;27;20034;-83
2021/12/04 15:14:32;;;;;;;15.93;7.00;;;5.40;99.90;;;;;;5117859;27;20043;-83
2021/12/04 15:17:05;;;;;;;18.50;7.15;;;5.10;99.90;;;;;;5116357;27;20054;-83
2021/12/04 15:19:41;;;;;;;20.20;6.85;;;5.10;99.90;;;;;;5115719;28;20048;-85
2021/12/04 15:22:13;;;;;;;;;;;5.20;99.90;;;;;;5116897;27;20050;-84
2021/12/04 15:24:42;;;;;;;20.63;7.78;;;5.10;99.90;;;;;;5114977;28;19920;-85
2021/12/04 15:27:21;;;;;;;18.23;7.97;;;5.50;99.90;;;;;;5115280;27;20056;-86
2021/12/04 15:29:48;;;;;;;20.42;7.75;;;5.20;99.90;;;;;;5119472;27;20429;-85
2021/12/04 15:32:19;;;;;;;16.05;7.15;;;5.40;99.90;;;;;;5133852;27;20043;-86
2021/12/04 15:34:53;;;;;;;16.88;7.57;;;5.30;99.90;;;;;;5126740;27;20399;-84
2021/12/04 15:37:52;;;;;;;19.23;7.88;;;5.80;99.90;;;;;;5123494;27;20407;-87
2021/12/04 15:40:28;;;;;;;15.88;6.32;;;5.10;99.90;;;;;;5115529;28;20044;-87
2021/12/04 15:43:12;;;;;;;16.10;7.07;;;5.10;99.90;;;;;;5114737;28;20055;-82
2021/12/04 15:45:51;;;;;;;17.70;6.47;;;5.10;99.90;;;;;;5113549;28;20170;-82
2021/12/04 15:53:30;;;;;;;16.30;6.80;;;5.10;99.90;;;;;;5127860;27;20043;-85
2021/12/04 15:55:56;;;;;;;16.95;6.97;;;5.20;99.90;;;;;;5135024;27;20047;-87
2021/12/04 15:58:27;;;;;;;20.52;7.78;;;5.10;99.90;;;;;;5126022;27;20050;-85
2021/12/04 16:01:03;;;;;;;16.48;7.60;;;5.10;99.90;;;;;;5115107;28;20391;-85
2021/12/04 16:03:35;;;;;;;16.58;6.72;;;5.10;99.90;;;;;;5114288;28;20542;-83
2021/12/04 16:06:01;;;;;;;14.15;5.93;;;5.10;99.90;;;;;;5148755;27;20038;-84
2021/12/04 16:08:31;;;;;;;18.27;7.40;;;5.30;99.90;;;;;;5117531;27;20035;-87
2021/12/04 16:11:03;;;;;;;17.92;6.90;;;5.00;99.90;;;;;;5155296;27;20035;-86
2021/12/04 16:13:34;;;;;;;23.25;9.55;;;5.00;99.90;;;;;;5156658;27;20030;-84
2021/12/04 16:16:09;;;;;;;18.17;8.07;;;5.00;99.90;;;;;;5120120;27;20125;-83
2021/12/04 16:18:35;;;;;;;19.75;8.57;;;5.50;99.90;;;;;;5154590;27;20077;-86
2021/12/04 16:21:01;;;;;;;18.75;7.63;;;5.00;99.90;;;;;;5155443;27;20447;-88
2021/12/04 16:23:31;;;;;;;19.25;7.55;;;5.00;99.90;;;;;;5156034;27;20482;-84
2021/12/04 16:25:59;;;;;;;16.73;6.78;;;5.60;99.90;;;;;;5135566;27;20401;-83
2021/12/04 16:34:02;;;;;;;15.05;6.47;;;4.80;99.90;;;;;;5134958;27;20411;-89
2021/12/04 16:36:41;;;;;;;16.10;7.20;;;4.80;99.90;;;;;;5136495;27;20089;-88
2021/12/04 16:39:10;;;;;;;18.15;6.93;;;4.50;99.90;;;;;;5135580;27;20045;-89
2021/12/04 16:41:38;;;;;;;16.50;7.05;;;5.80;99.90;;;;;;5122808;27;20125;-87
2021/12/04 16:44:07;;;;;;;16.08;7.70;;;5.00;99.90;;;;;;5135251;27;20039;-83
2021/12/04 16:46:39;;;;;;;16.60;6.68;;;5.00;99.90;;;;;;5135029;27;20405;-86
2021/12/04 16:49:06;;;;;;;14.93;7.18;;;5.00;99.90;;;;;;5134633;27;20035;-85
2021/12/04 16:59:39;;;;;;;15.00;6.78;;;5.20;99.90;;;;;;5134396;27;20039;-90
2021/12/04 17:02:09;;;;;;;12.32;6.13;;;5.30;99.90;;;;;;5135385;27;20046;-89
2021/12/04 17:04:36;;;;;;;17.63;7.95;;;5.00;99.90;;;;;;5145417;27;20039;-89
2021/12/04 17:07:03;;;;;;;16.98;7.32;;;6.50;99.90;;;;;;5155145;27;20068;-89
2021/12/04 17:09:30;;;;;;;15.82;8.07;;;5.00;99.90;;;;;;5115943;27;20403;-89
2021/12/04 17:11:57;;;;;;;16.15;7.50;;;5.00;99.90;;;;;;5144799;27;20042;-90
2021/12/04 17:14:26;;;;;;;14.70;6.75;;;5.60;99.90;;;;;;5115980;27;20073;-88
2021/12/04 17:16:53;;;;;;;14.20;6.25;;;5.40;99.90;;;;;;5115694;27;20536;-86
2021/12/04 17:19:19;;;;;;;14.50;6.57;;;5.00;99.90;;;;;;5133139;27;20078;-84
2021/12/04 17:21:47;;;;;;;15.52;6.85;;;5.00;99.90;;;;;;5133357;27;20054;-84
2021/12/04 17:24:15;;;;;;;17.50;7.22;;;5.00;99.90;;;;;;5134972;27;20081;-82
2021/12/04 17:26:43;;;;;;;14.43;6.35;;;5.30;99.90;;;;;;5117195;27;20398;-85
2021/12/04 17:29:11;;;;;;;13.93;6.00;;;5.20;99.90;;;;;;5124998;27;20078;-89
2021/12/04 17:31:39;;;;;;;18.23;6.47;;;5.50;99.90;;;;;;5118691;27;20046;-85
2021/12/04 17:34:06;;;;;;;10.88;5.25;;;5.00;99.90;;;;;;5153669;27;20083;-82